Time;durP1;ratioP1;P1;durP2;ratioP2;P2;SDS_P1;SDS_P2;PMS_P1;PMS_P2;Temp;Humidity;BMP_temperature;BMP_pressure;BME280_temperature;BME280_humidity;BME280_pressure;Samples;Min_cycle;Max_cycle;Signal;HPM_P1;HPM_P2
2023/06/19 00:01:30;;;;;;;91.95;33.28;;;;;;;;;;5004608;28;20046;-59
2023/06/19 00:03:57;;;;;;;47.60;27.63;;;;;;;;;;5010036;28;20058;-61
2023/06/19 00:06:23;;;;;;;67.55;31.17;;;;;;;;;;5003790;28;20050;-56
2023/06/19 00:08:50;;;;;;;75.65;32.72;;;;;;;;;;5005083;28;20049;-59
2023/06/19 00:11:17;;;;;;;52.30;31.17;;;;;;;;;;5004401;28;20439;-59
2023/06/19 00:13:44;;;;;;;111.57;36.80;;;;;;;;;;4984885;28;20427;-60
2023/06/19 00:16:11;;;;;;;74.78;34.22;;;;;;;;;;5006833;28;20104;-60
2023/06/19 00:18:40;;;;;;;82.60;33.58;;;;;;;;;;5003142;28;20133;-59
2023/06/19 00:21:07;;;;;;;49.42;27.88;;;;;;;;;;4991753;28;20125;-56
2023/06/19 00:23:35;;;;;;;86.53;30.05;;;;;;;;;;5008479;28;20134;-61
2023/06/19 00:26:02;;;;;;;63.30;31.15;;;;;;;;;;5003151;28;20049;-61
2023/06/19 00:28:31;;;;;;;105.03;35.33;;;;;;;;;;5001515;28;20125;-63
2023/06/19 00:30:59;;;;;;;58.33;30.30;;;;;;;;;;5004925;28;20058;-60
2023/06/19 00:33:26;;;;;;;66.60;29.67;;;;;;;;;;5001529;28;20057;-58
2023/06/19 00:35:54;;;;;;;83.95;32.70;;;;;;;;;;4983939;28;20049;-62
2023/06/19 00:38:21;;;;;;;82.78;31.27;;;;;;;;;;5000903;28;20045;-61
2023/06/19 00:40:47;;;;;;;74.28;30.02;;;;;;;;;;5003359;28;20048;-59
2023/06/19 00:43:14;;;;;;;76.85;33.97;;;;;;;;;;4984528;28;20061;-58
2023/06/19 00:45:40;;;;;;;81.18;31.63;;;;;;;;;;5003520;28;20056;-62
2023/06/19 00:48:07;;;;;;;70.93;30.52;;;;;;;;;;5000886;28;20042;-60
2023/06/19 00:50:34;;;;;;;60.03;31.90;;;;;;;;;;4991279;28;20053;-58
2023/06/19 00:53:03;;;;;;;85.68;32.50;;;;;;;;;;5002354;28;20046;-58
2023/06/19 00:55:30;;;;;;;98.10;31.70;;;;;;;;;;4999058;28;20041;-59
2023/06/19 00:57:58;;;;;;;74.82;33.13;;;;;;;;;;5003105;28;20124;-61
2023/06/19 01:00:25;;;;;;;69.70;31.15;;;;;;;;;;4991166;28;20084;-57
2023/06/19 01:02:52;;;;;;;73.30;33.35;;;;;;;;;;5003555;28;20050;-59
2023/06/19 01:05:20;;;;;;;95.47;32.85;;;;;;;;;;5001702;28;20488;-61
2023/06/19 01:07:47;;;;;;;70.95;32.75;;;;;;;;;;4985502;28;20619;-63
2023/06/19 01:10:16;;;;;;;81.70;33.38;;;;;;;;;;4984805;28;20132;-59
2023/06/19 01:12:52;;;;;;;68.88;31.65;;;;;;;;;;5006409;28;20070;-59
2023/06/19 01:15:19;;;;;;;81.50;34.78;;;;;;;;;;4999507;28;20129;-57
2023/06/19 01:17:47;;;;;;;87.65;35.38;;;;;;;;;;5001922;28;20048;-59
2023/06/19 01:20:14;;;;;;;66.50;29.58;;;;;;;;;;5001990;28;20053;-60
2023/06/19 01:22:46;;;;;;;77.88;31.98;;;;;;;;;;4984557;28;20045;-57
2023/06/19 01:25:13;;;;;;;70.72;31.92;;;;;;;;;;5001048;28;20053;-57
2023/06/19 01:27:42;;;;;;;75.80;30.33;;;;;;;;;;4983357;28;20060;-63
2023/06/19 01:30:10;;;;;;;68.80;31.73;;;;;;;;;;5001253;28;20101;-60
2023/06/19 01:32:40;;;;;;;107.78;34.50;;;;;;;;;;4992993;28;20066;-60
2023/06/19 01:35:08;;;;;;;61.13;30.60;;;;;;;;;;5001607;28;20046;-58
2023/06/19 01:37:36;;;;;;;97.38;34.10;;;;;;;;;;4999672;28;20463;-60
2023/06/19 01:40:05;;;;;;;67.00;32.20;;;;;;;;;;5002494;28;20451;-60
2023/06/19 01:42:33;;;;;;;59.38;28.98;;;;;;;;;;4991565;28;20166;-57
2023/06/19 01:45:02;;;;;;;57.70;27.15;;;;;;;;;;4991217;28;20133;-60
2023/06/19 01:47:29;;;;;;;74.88;30.77;;;;;;;;;;4984856;28;20100;-58
2023/06/19 01:49:56;;;;;;;55.15;29.13;;;;;;;;;;5002526;28;20048;-59
2023/06/19 01:52:26;;;;;;;64.50;28.63;;;;;;;;;;4993610;28;20400;-65
2023/06/19 01:54:53;;;;;;;68.25;27.60;;;;;;;;;;4984042;28;20073;-57
2023/06/19 01:57:20;;;;;;;78.68;32.17;;;;;;;;;;4999426;28;20034;-59
2023/06/19 01:59:47;;;;;;;67.47;29.70;;;;;;;;;;5000698;28;20137;-59
2023/06/19 02:02:14;;;;;;;69.57;29.05;;;;;;;;;;5002260;28;20049;-57
2023/06/19 02:04:41;;;;;;;129.07;35.70;;;;;;;;;;4997390;28;20058;-59
2023/06/19 02:07:07;;;;;;;72.65;31.13;;;;;;;;;;4998344;28;20554;-61
2023/06/19 02:09:34;;;;;;;90.80;31.45;;;;;;;;;;4998204;28;20068;-68
2023/06/19 02:12:01;;;;;;;61.85;31.27;;;;;;;;;;4998533;28;20046;-60
2023/06/19 02:14:28;;;;;;;94.70;35.65;;;;;;;;;;4975745;28;20164;-62
2023/06/19 02:16:54;;;;;;;97.40;34.65;;;;;;;;;;5000497;28;20042;-63
2023/06/19 02:19:21;;;;;;;86.03;31.85;;;;;;;;;;4987710;28;20104;-65
2023/06/19 02:21:48;;;;;;;69.75;29.30;;;;;;;;;;4986925;28;20057;-61
2023/06/19 02:24:16;;;;;;;85.13;32.17;;;;;;;;;;4998949;28;20121;-60
2023/06/19 02:26:43;;;;;;;78.95;28.95;;;;;;;;;;5002386;28;20058;-60
2023/06/19 02:29:10;;;;;;;84.18;31.58;;;;;;;;;;5000656;28;20051;-60
2023/06/19 02:31:37;;;;;;;128.32;34.55;;;;;;;;;;4998430;28;20050;-61
2023/06/19 02:34:04;;;;;;;56.75;28.92;;;;;;;;;;4999908;28;20046;-59
2023/06/19 02:36:31;;;;;;;84.43;30.13;;;;;;;;;;4976775;28;20058;-60
2023/06/19 02:38:58;;;;;;;103.93;36.67;;;;;;;;;;5002189;28;20042;-63
2023/06/19 02:41:25;;;;;;;67.82;32.67;;;;;;;;;;4988127;28;20038;-59
2023/06/19 02:43:52;;;;;;;85.43;35.33;;;;;;;;;;4995082;28;20037;-59
2023/06/19 02:46:19;;;;;;;89.40;33.90;;;;;;;;;;5002723;28;20045;-59
2023/06/19 02:48:45;;;;;;;83.68;32.72;;;;;;;;;;5002666;28;20096;-62
2023/06/19 02:51:12;;;;;;;80.93;30.95;;;;;;;;;;4993152;28;20523;-59
2023/06/19 02:53:39;;;;;;;89.43;29.70;;;;;;;;;;5004986;28;20054;-60
2023/06/19 02:56:07;;;;;;;82.35;30.40;;;;;;;;;;4994916;28;20049;-59
2023/06/19 02:58:34;;;;;;;100.05;29.30;;;;;;;;;;5004785;28;20050;-63
2023/06/19 03:01:01;;;;;;;62.33;29.05;;;;;;;;;;5005828;28;20052;-61
2023/06/19 03:03:28;;;;;;;65.20;29.80;;;;;;;;;;5003301;28;20501;-60
2023/06/19 03:05:55;;;;;;;86.07;31.42;;;;;;;;;;5004804;28;20053;-58
2023/06/19 03:08:21;;;;;;;73.55;26.90;;;;;;;;;;5005157;28;20041;-64
2023/06/19 03:10:48;;;;;;;63.97;28.70;;;;;;;;;;4987723;28;20101;-61
2023/06/19 03:13:15;;;;;;;81.88;32.45;;;;;;;;;;4992778;28;20057;-59
2023/06/19 03:15:41;;;;;;;84.88;30.60;;;;;;;;;;4994250;28;20069;-62
2023/06/19 03:18:10;;;;;;;85.88;31.10;;;;;;;;;;5002957;28;20101;-58
2023/06/19 03:20:38;;;;;;;106.10;40.83;;;;;;;;;;4993254;28;20046;-58
2023/06/19 03:23:05;;;;;;;74.65;34.08;;;;;;;;;;5002725;28;20468;-60
2023/06/19 03:25:34;;;;;;;107.93;37.88;;;;;;;;;;5001701;28;20053;-61
2023/06/19 03:28:02;;;;;;;104.55;37.80;;;;;;;;;;5001309;28;20105;-60
2023/06/19 03:30:29;;;;;;;82.55;34.58;;;;;;;;;;4994687;28;20034;-59
2023/06/19 03:32:56;;;;;;;65.07;35.28;;;;;;;;;;5002900;28;20514;-59
2023/06/19 03:35:36;;;;;;;132.90;41.80;;;;;;;;;;4989304;28;20407;-62
2023/06/19 03:38:04;;;;;;;94.78;36.33;;;;;;;;;;5006127;28;20065;-59
2023/06/19 03:40:30;;;;;;;116.30;38.95;;;;;;;;;;4994549;28;20041;-62
2023/06/19 03:43:04;;;;;;;;;;;;;;;;;;4988828;28;20077;-65
2023/06/19 03:45:30;;;;;;;94.32;43.88;;;;;;;;;;5002385;28;20439;-62
2023/06/19 03:47:57;;;;;;;53.65;34.90;;;;;;;;;;4987526;28;20099;-58
2023/06/19 03:50:24;;;;;;;87.90;37.35;;;;;;;;;;5004104;28;20065;-60
2023/06/19 03:52:53;;;;;;;86.57;37.15;;;;;;;;;;5004048;28;20076;-61
2023/06/19 03:55:19;;;;;;;77.10;38.45;;;;;;;;;;4977009;28;20051;-60
2023/06/19 03:57:46;;;;;;;69.22;37.22;;;;;;;;;;4983995;28;20048;-59
2023/06/19 04:00:13;;;;;;;81.90;40.55;;;;;;;;;;5000293;28;20049;-57
2023/06/19 04:02:40;;;;;;;87.30;44.17;;;;;;;;;;4993205;28;20069;-60
2023/06/19 04:05:08;;;;;;;89.65;45.30;;;;;;;;;;5001841;28;20500;-61
2023/06/19 04:07:36;;;;;;;104.57;43.65;;;;;;;;;;5002637;28;20050;-60
2023/06/19 04:10:05;;;;;;;69.10;39.30;;;;;;;;;;4985499;28;20045;-64
2023/06/19 04:12:31;;;;;;;87.47;40.42;;;;;;;;;;5002679;28;20533;-61
2023/06/19 04:14:58;;;;;;;80.60;42.65;;;;;;;;;;4993875;28;20057;-60
2023/06/19 04:17:25;;;;;;;82.03;45.42;;;;;;;;;;5002353;28;20068;-60
2023/06/19 04:19:52;;;;;;;83.55;43.75;;;;;;;;;;4986257;28;20064;-61
2023/06/19 04:22:19;;;;;;;79.65;43.05;;;;;;;;;;4988657;28;20097;-61
2023/06/19 04:24:45;;;;;;;82.22;42.08;;;;;;;;;;5004478;28;20089;-62
2023/06/19 04:27:12;;;;;;;72.75;43.42;;;;;;;;;;5001352;28;20045;-60
2023/06/19 04:29:38;;;;;;;95.72;45.90;;;;;;;;;;4975071;28;20074;-61
2023/06/19 04:32:11;;;;;;;71.53;47.47;;;;;;;;;;5001153;28;20125;-60
2023/06/19 04:34:38;;;;;;;154.27;54.37;;;;;;;;;;5001056;28;20511;-61
2023/06/19 04:37:05;;;;;;;61.42;45.50;;;;;;;;;;4992888;28;20100;-60
2023/06/19 04:39:32;;;;;;;84.95;46.85;;;;;;;;;;4992944;28;20062;-64
2023/06/19 04:41:59;;;;;;;78.38;44.80;;;;;;;;;;4999125;28;20053;-64
2023/06/19 04:44:26;;;;;;;94.82;51.08;;;;;;;;;;4991491;28;20046;-61
2023/06/19 04:47:00;;;;;;;57.38;49.65;;;;;;;;;;5010347;28;20457;-60
2023/06/19 04:49:29;;;;;;;90.45;54.45;;;;;;;;;;5007614;28;20133;-60
2023/06/19 04:51:57;;;;;;;83.13;57.78;;;;;;;;;;5002932;28;20046;-58
2023/06/19 04:54:24;;;;;;;86.45;71.38;;;;;;;;;;4997900;28;20488;-60
2023/06/19 04:56:51;;;;;;;84.38;60.80;;;;;;;;;;5006969;28;20057;-58
2023/06/19 04:59:21;;;;;;;73.28;57.22;;;;;;;;;;5003593;28;20052;-61
2023/06/19 05:01:47;;;;;;;87.75;57.63;;;;;;;;;;5001854;28;20046;-60
2023/06/19 05:04:14;;;;;;;72.22;63.67;;;;;;;;;;4994559;28;20065;-59
2023/06/19 05:06:42;;;;;;;103.70;61.55;;;;;;;;;;5008362;28;20073;-60
2023/06/19 05:09:09;;;;;;;83.70;71.90;;;;;;;;;;4985995;28;20502;-61
2023/06/19 05:11:36;;;;;;;87.38;75.95;;;;;;;;;;5002992;28;20050;-61
2023/06/19 05:14:02;;;;;;;97.22;69.22;;;;;;;;;;5000997;28;20068;-60
2023/06/19 05:16:29;;;;;;;82.35;69.25;;;;;;;;;;5009212;28;20050;-62
2023/06/19 05:18:56;;;;;;;88.05;79.70;;;;;;;;;;5005438;28;20124;-59
2023/06/19 05:21:23;;;;;;;71.88;64.80;;;;;;;;;;5003086;28;20049;-60
2023/06/19 05:23:50;;;;;;;92.03;80.63;;;;;;;;;;5004022;28;20073;-60
2023/06/19 05:26:17;;;;;;;99.35;89.13;;;;;;;;;;4991793;28;20530;-59
2023/06/19 05:28:44;;;;;;;128.23;93.45;;;;;;;;;;4968430;28;20447;-59
2023/06/19 05:31:10;;;;;;;102.35;93.28;;;;;;;;;;5000486;28;20523;-60
2023/06/19 05:33:37;;;;;;;113.43;86.82;;;;;;;;;;5003090;28;20468;-62
2023/06/19 05:36:04;;;;;;;99.78;90.05;;;;;;;;;;5006266;28;20049;-60
2023/06/19 05:38:30;;;;;;;104.18;86.28;;;;;;;;;;5004389;28;20490;-62
2023/06/19 05:40:58;;;;;;;90.47;82.72;;;;;;;;;;4990080;28;20041;-61
2023/06/19 05:43:24;;;;;;;91.07;78.80;;;;;;;;;;4991668;28;20073;-59
2023/06/19 05:45:52;;;;;;;91.28;81.63;;;;;;;;;;5002536;28;20511;-59
2023/06/19 05:48:18;;;;;;;90.05;80.65;;;;;;;;;;5001938;28;20038;-60
2023/06/19 05:50:45;;;;;;;99.32;90.65;;;;;;;;;;5002110;28;20046;-60
2023/06/19 05:53:12;;;;;;;102.30;91.30;;;;;;;;;;4983773;28;20476;-60
2023/06/19 05:55:41;;;;;;;123.70;95.95;;;;;;;;;;5002466;28;20057;-62
2023/06/19 05:58:07;;;;;;;107.05;89.93;;;;;;;;;;4998950;28;20066;-60
2023/06/19 06:00:34;;;;;;;112.10;100.70;;;;;;;;;;5000335;28;20046;-61
2023/06/19 06:03:00;;;;;;;107.32;98.10;;;;;;;;;;4998893;28;20050;-61
2023/06/19 06:05:27;;;;;;;100.50;91.13;;;;;;;;;;5002007;28;20050;-59
2023/06/19 06:07:54;;;;;;;100.78;89.70;;;;;;;;;;5003829;28;20050;-61
2023/06/19 06:10:22;;;;;;;108.00;96.85;;;;;;;;;;4985621;28;20061;-59
2023/06/19 06:12:50;;;;;;;100.40;89.47;;;;;;;;;;4989931;28;20054;-60
2023/06/19 06:15:17;;;;;;;94.72;85.30;;;;;;;;;;5009082;28;20484;-61
2023/06/19 06:17:43;;;;;;;93.80;84.82;;;;;;;;;;5008287;28;20042;-60
2023/06/19 06:20:13;;;;;;;94.65;85.70;;;;;;;;;;5009381;28;20050;-61
2023/06/19 06:22:40;;;;;;;149.93;103.45;;;;;;;;;;5005023;28;20070;-59
2023/06/19 06:25:07;;;;;;;134.13;114.00;;;;;;;;;;4996490;28;20057;-61
2023/06/19 06:27:38;;;;;;;132.80;119.20;;;;;;;;;;4996186;28;20128;-60
2023/06/19 06:30:05;;;;;;;132.55;120.53;;;;;;;;;;5002515;28;20177;-61
2023/06/19 06:32:32;;;;;;;121.45;109.13;;;;;;;;;;4986897;28;20046;-62
2023/06/19 06:34:58;;;;;;;127.15;114.35;;;;;;;;;;4988353;28;20092;-60
2023/06/19 06:37:25;;;;;;;131.80;118.78;;;;;;;;;;5010291;28;20041;-60
2023/06/19 06:39:52;;;;;;;140.90;127.78;;;;;;;;;;4994119;28;20049;-61
2023/06/19 06:42:18;;;;;;;153.25;139.07;;;;;;;;;;5007194;28;20094;-61
2023/06/19 06:44:45;;;;;;;145.68;133.55;;;;;;;;;;5003701;28;20052;-59
2023/06/19 06:47:12;;;;;;;161.20;147.00;;;;;;;;;;5004556;28;20041;-60
2023/06/19 06:49:39;;;;;;;170.90;140.05;;;;;;;;;;4986113;28;20056;-61
2023/06/19 06:52:06;;;;;;;140.55;126.50;;;;;;;;;;5004730;28;20125;-60
2023/06/19 06:54:33;;;;;;;146.93;131.30;;;;;;;;;;5007494;28;20133;-60
2023/06/19 06:57:00;;;;;;;153.95;129.90;;;;;;;;;;5011261;28;20052;-60
2023/06/19 06:59:27;;;;;;;138.55;126.05;;;;;;;;;;5008527;28;20037;-61
2023/06/19 07:01:56;;;;;;;147.07;131.10;;;;;;;;;;4995547;28;20037;-60
2023/06/19 07:04:23;;;;;;;152.30;139.45;;;;;;;;;;5008075;28;20058;-53
2023/06/19 07:06:50;;;;;;;156.13;142.85;;;;;;;;;;5005507;28;20049;-60
2023/06/19 07:09:17;;;;;;;159.50;144.95;;;;;;;;;;4984576;28;20046;-59
2023/06/19 07:11:44;;;;;;;156.77;142.85;;;;;;;;;;5005650;28;20057;-63
2023/06/19 07:14:11;;;;;;;154.73;140.73;;;;;;;;;;4990159;28;20042;-59
2023/06/19 07:16:37;;;;;;;153.88;137.57;;;;;;;;;;5002753;28;20041;-61
2023/06/19 07:19:04;;;;;;;138.38;126.93;;;;;;;;;;5003182;28;20547;-60
2023/06/19 07:21:31;;;;;;;142.23;129.75;;;;;;;;;;5003070;28;20042;-57
2023/06/19 07:23:58;;;;;;;147.73;133.07;;;;;;;;;;5001449;28;20069;-60
2023/06/19 07:26:25;;;;;;;153.35;137.75;;;;;;;;;;5004421;28;20046;-58
2023/06/19 07:28:51;;;;;;;146.75;132.60;;;;;;;;;;5005278;28;20050;-59
2023/06/19 07:31:18;;;;;;;147.82;135.90;;;;;;;;;;4994063;28;20046;-59
2023/06/19 07:33:45;;;;;;;165.23;149.52;;;;;;;;;;5012430;28;20507;-59
2023/06/19 07:36:13;;;;;;;171.38;155.48;;;;;;;;;;5007968;28;20125;-59
2023/06/19 07:38:41;;;;;;;180.10;164.00;;;;;;;;;;5004366;28;20056;-60
2023/06/19 07:41:09;;;;;;;211.38;191.75;;;;;;;;;;4986583;28;20052;-62
2023/06/19 07:43:36;;;;;;;276.98;251.05;;;;;;;;;;5005185;28;20049;-63
2023/06/19 07:46:03;;;;;;;333.30;303.95;;;;;;;;;;5005225;28;20056;-60
2023/06/19 07:48:30;;;;;;;319.15;293.10;;;;;;;;;;5004976;28;20507;-59
2023/06/19 07:50:57;;;;;;;334.00;306.02;;;;;;;;;;4993040;28;20048;-61
2023/06/19 07:53:23;;;;;;;363.13;334.25;;;;;;;;;;5005085;28;20570;-56
2023/06/19 07:55:50;;;;;;;360.52;329.88;;;;;;;;;;5003225;28;20065;-60
2023/06/19 07:58:16;;;;;;;347.92;317.95;;;;;;;;;;5005647;28;20480;-60
2023/06/19 08:00:43;;;;;;;314.13;289.67;;;;;;;;;;5006377;28;20663;-60
2023/06/19 08:03:10;;;;;;;338.08;309.55;;;;;;;;;;4983105;28;20054;-62
2023/06/19 08:05:37;;;;;;;347.02;319.63;;;;;;;;;;5007770;28;20046;-58
2023/06/19 08:08:03;;;;;;;343.58;315.08;;;;;;;;;;5004398;28;20042;-60
2023/06/19 08:10:30;;;;;;;327.58;302.13;;;;;;;;;;5001250;28;20492;-65
2023/06/19 08:12:57;;;;;;;341.70;313.40;;;;;;;;;;5003387;28;20439;-60
2023/06/19 08:15:23;;;;;;;327.63;302.42;;;;;;;;;;5007883;28;20125;-59
2023/06/19 08:17:50;;;;;;;333.85;306.20;;;;;;;;;;5006455;28;20042;-59
2023/06/19 08:20:17;;;;;;;339.90;313.63;;;;;;;;;;5003095;28;20475;-61
2023/06/19 08:22:43;;;;;;;354.95;324.60;;;;;;;;;;5001594;28;20466;-59
2023/06/19 08:25:10;;;;;;;343.52;316.17;;;;;;;;;;5004178;28;20116;-60
2023/06/19 08:27:37;;;;;;;330.13;304.13;;;;;;;;;;5003687;28;20053;-61
2023/06/19 08:30:04;;;;;;;344.13;314.42;;;;;;;;;;5004688;28;20038;-61
2023/06/19 08:32:30;;;;;;;335.02;308.40;;;;;;;;;;4987217;28;20480;-60
2023/06/19 08:34:57;;;;;;;347.85;319.30;;;;;;;;;;5002629;28;20416;-60
2023/06/19 08:37:24;;;;;;;346.90;320.65;;;;;;;;;;4984583;28;20396;-59
2023/06/19 08:39:50;;;;;;;351.27;323.63;;;;;;;;;;5003231;28;20531;-62
2023/06/19 08:42:17;;;;;;;326.45;300.95;;;;;;;;;;5001521;28;20101;-60
2023/06/19 08:44:44;;;;;;;353.52;324.17;;;;;;;;;;5003174;28;20108;-60
2023/06/19 08:47:10;;;;;;;348.08;319.40;;;;;;;;;;5007059;28;20395;-62
2023/06/19 08:49:37;;;;;;;347.58;318.58;;;;;;;;;;5001111;28;20459;-64
2023/06/19 08:52:04;;;;;;;349.55;320.88;;;;;;;;;;5002262;28;20495;-59
2023/06/19 08:54:31;;;;;;;343.63;317.20;;;;;;;;;;5002312;28;20586;-60
2023/06/19 08:57:01;;;;;;;339.67;312.98;;;;;;;;;;5005838;28;20483;-60
2023/06/19 08:59:31;;;;;;;344.73;319.30;;;;;;;;;;5003019;28;20049;-59
2023/06/19 09:01:58;;;;;;;347.02;317.95;;;;;;;;;;5008646;28;20046;-60
2023/06/19 09:04:28;;;;;;;341.95;314.77;;;;;;;;;;4984145;28;20134;-60
2023/06/19 09:06:56;;;;;;;351.58;324.23;;;;;;;;;;4993250;28;20053;-62
2023/06/19 09:09:24;;;;;;;345.45;318.80;;;;;;;;;;5000279;28;20061;-60
2023/06/19 09:12:00;;;;;;;341.75;314.30;;;;;;;;;;5002243;28;20038;-59
2023/06/19 09:14:34;;;;;;;340.85;314.83;;;;;;;;;;5002289;28;20030;-59
2023/06/19 09:17:05;;;;;;;343.52;314.15;;;;;;;;;;5003881;28;20038;-64
2023/06/19 09:19:34;;;;;;;341.35;314.50;;;;;;;;;;5003337;28;20104;-62
2023/06/19 09:22:02;;;;;;;351.05;320.77;;;;;;;;;;5000353;28;20045;-60
2023/06/19 09:24:39;;;;;;;336.10;309.30;;;;;;;;;;4984889;28;20419;-60
2023/06/19 09:27:13;;;;;;;325.05;301.05;;;;;;;;;;4989952;28;20052;-60
2023/06/19 09:29:41;;;;;;;341.63;312.25;;;;;;;;;;5001499;28;20053;-59
2023/06/19 09:32:34;;;;;;;341.13;311.48;;;;;;;;;;4989245;28;20042;-63
2023/06/19 09:35:00;;;;;;;328.05;300.58;;;;;;;;;;4987117;28;20041;-59
2023/06/19 09:37:28;;;;;;;324.50;300.50;;;;;;;;;;5000377;28;20521;-60
2023/06/19 09:39:57;;;;;;;345.10;318.17;;;;;;;;;;4987053;28;20140;-61
2023/06/19 09:42:33;;;;;;;323.00;299.40;;;;;;;;;;5001132;28;20037;-59
2023/06/19 09:45:02;;;;;;;331.00;304.17;;;;;;;;;;5001151;28;20046;-61
2023/06/19 09:47:32;;;;;;;348.08;317.08;;;;;;;;;;4968756;28;20551;-60
2023/06/19 09:50:00;;;;;;;333.08;306.35;;;;;;;;;;4984116;28;20069;-59
2023/06/19 09:52:27;;;;;;;328.00;301.80;;;;;;;;;;5001680;28;20523;-58
2023/06/19 09:55:03;;;;;;;334.17;308.45;;;;;;;;;;5001137;28;20053;-52
2023/06/19 09:57:31;;;;;;;331.63;307.20;;;;;;;;;;5001120;28;20129;-52
2023/06/19 09:59:59;;;;;;;351.08;324.35;;;;;;;;;;4990394;28;20448;-51
2023/06/19 10:02:38;;;;;;;328.55;303.15;;;;;;;;;;5003625;28;20052;-59
2023/06/19 10:05:05;;;;;;;344.25;312.90;;;;;;;;;;5004219;28;20464;-61
2023/06/19 10:07:33;;;;;;;333.80;308.48;;;;;;;;;;4981206;28;20266;-64
2023/06/19 10:10:06;;;;;;;338.70;311.38;;;;;;;;;;5002577;28;20053;-62
2023/06/19 10:12:39;;;;;;;330.33;304.63;;;;;;;;;;5002848;28;20046;-61
2023/06/19 10:15:06;;;;;;;;;;;;;;;;;;5005129;28;20101;-61
2023/06/19 10:17:32;;;;;;;332.70;306.42;;;;;;;;;;5002677;28;19925;-64
2023/06/19 10:19:59;;;;;;;337.58;310.35;;;;;;;;;;5003570;28;20038;-63
2023/06/19 10:22:32;;;;;;;335.00;308.13;;;;;;;;;;5003211;28;20392;-60
2023/06/19 10:24:59;;;;;;;349.73;322.02;;;;;;;;;;4985266;28;20038;-63
2023/06/19 10:27:26;;;;;;;351.20;323.17;;;;;;;;;;4982290;28;20050;-60
2023/06/19 10:29:53;;;;;;;358.23;328.85;;;;;;;;;;4983819;28;20055;-61
2023/06/19 10:32:40;;;;;;;361.25;332.55;;;;;;;;;;5002533;28;20054;-62
2023/06/19 10:35:11;;;;;;;345.80;319.98;;;;;;;;;;5005750;28;20050;-61
2023/06/19 10:37:38;;;;;;;367.52;335.45;;;;;;;;;;4990661;28;20049;-61
2023/06/19 10:40:10;;;;;;;370.17;339.45;;;;;;;;;;5000478;28;20133;-62
2023/06/19 10:42:37;;;;;;;367.38;337.10;;;;;;;;;;4984090;28;20042;-61
2023/06/19 10:45:05;;;;;;;357.30;329.05;;;;;;;;;;4998811;28;20065;-62
2023/06/19 10:47:32;;;;;;;356.55;328.60;;;;;;;;;;4998838;28;20045;-62
2023/06/19 10:49:59;;;;;;;354.45;326.50;;;;;;;;;;5002827;28;20709;-61
2023/06/19 10:52:28;;;;;;;349.33;322.00;;;;;;;;;;4985779;28;20070;-61
2023/06/19 10:54:55;;;;;;;348.17;321.33;;;;;;;;;;5004979;28;20426;-61
2023/06/19 10:57:29;;;;;;;353.30;325.38;;;;;;;;;;4985377;28;20380;-64
2023/06/19 10:59:56;;;;;;;357.80;328.40;;;;;;;;;;4991932;28;20133;-62
2023/06/19 11:02:22;;;;;;;348.35;320.95;;;;;;;;;;4987443;28;20038;-67
2023/06/19 11:04:51;;;;;;;369.00;336.67;;;;;;;;;;5005638;28;20058;-60
2023/06/19 11:07:18;;;;;;;354.55;325.95;;;;;;;;;;5003331;28;20098;-61
2023/06/19 11:09:45;;;;;;;361.95;330.80;;;;;;;;;;5004000;28;20045;-62
2023/06/19 11:12:11;;;;;;;353.90;326.25;;;;;;;;;;5003105;28;20042;-67
2023/06/19 11:14:39;;;;;;;362.70;332.88;;;;;;;;;;4988150;28;20042;-60
2023/06/19 11:17:06;;;;;;;367.40;334.25;;;;;;;;;;5003211;28;20126;-62
2023/06/19 11:19:33;;;;;;;364.35;335.65;;;;;;;;;;5004492;28;20508;-65
2023/06/19 11:22:02;;;;;;;367.77;338.67;;;;;;;;;;5000884;28;20058;-65
2023/06/19 11:24:29;;;;;;;360.48;332.85;;;;;;;;;;5004798;28;20034;-63
2023/06/19 11:26:58;;;;;;;355.15;328.40;;;;;;;;;;5003597;28;20097;-62
2023/06/19 11:29:26;;;;;;;367.52;337.50;;;;;;;;;;5000999;28;20381;-67
2023/06/19 11:32:08;;;;;;;372.92;343.35;;;;;;;;;;4970429;28;20066;-62
2023/06/19 11:34:38;;;;;;;376.27;343.42;;;;;;;;;;5005894;28;20049;-64
2023/06/19 11:37:18;;;;;;;361.23;332.08;;;;;;;;;;5006056;28;20041;-64
2023/06/19 11:39:47;;;;;;;374.92;345.92;;;;;;;;;;5006291;28;20482;-62
2023/06/19 11:42:15;;;;;;;362.25;332.30;;;;;;;;;;5003304;28;20496;-64
2023/06/19 11:44:54;;;;;;;368.27;337.30;;;;;;;;;;5003327;28;20404;-61
2023/06/19 11:47:21;;;;;;;390.17;353.55;;;;;;;;;;5003004;28;20045;-62
2023/06/19 11:49:49;;;;;;;385.80;349.98;;;;;;;;;;5003080;28;20046;-67
2023/06/19 11:52:15;;;;;;;379.40;346.67;;;;;;;;;;4986245;28;20050;-64
2023/06/19 11:54:43;;;;;;;389.50;354.88;;;;;;;;;;4985394;28;20080;-66
2023/06/19 11:57:12;;;;;;;381.38;349.45;;;;;;;;;;5000731;28;20077;-70
2023/06/19 11:59:40;;;;;;;383.30;351.25;;;;;;;;;;5006312;28;20062;-64
2023/06/19 12:02:07;;;;;;;376.38;344.98;;;;;;;;;;5004816;28;20392;-62
2023/06/19 12:04:34;;;;;;;383.63;353.05;;;;;;;;;;5000874;28;20128;-70
2023/06/19 12:07:01;;;;;;;375.88;345.42;;;;;;;;;;5008015;28;20555;-63
2023/06/19 12:09:28;;;;;;;376.65;344.17;;;;;;;;;;5002089;28;20482;-61
2023/06/19 12:11:54;;;;;;;379.35;348.98;;;;;;;;;;5005324;28;20532;-62
2023/06/19 12:14:21;;;;;;;389.25;354.83;;;;;;;;;;5005950;28;20038;-61
2023/06/19 12:16:47;;;;;;;382.83;349.27;;;;;;;;;;5002541;28;20560;-62
2023/06/19 12:19:14;;;;;;;376.50;347.00;;;;;;;;;;4970914;28;20060;-61
2023/06/19 12:21:46;;;;;;;384.02;350.90;;;;;;;;;;4990001;28;20050;-63
2023/06/19 12:24:12;;;;;;;389.58;355.98;;;;;;;;;;5002149;28;20093;-62
2023/06/19 12:26:39;;;;;;;390.88;359.05;;;;;;;;;;5002638;28;20062;-61
2023/06/19 12:29:06;;;;;;;376.25;345.33;;;;;;;;;;5002440;28;20514;-61
2023/06/19 12:31:35;;;;;;;388.77;357.88;;;;;;;;;;5000880;28;20073;-71
2023/06/19 12:34:03;;;;;;;369.83;340.70;;;;;;;;;;5002071;28;20050;-62
2023/06/19 12:36:50;;;;;;;366.45;337.40;;;;;;;;;;5003177;28;20069;-62
2023/06/19 12:39:16;;;;;;;369.73;340.85;;;;;;;;;;5001276;28;20093;-62
2023/06/19 12:41:43;;;;;;;366.40;335.70;;;;;;;;;;5002280;28;20078;-62
2023/06/19 12:44:10;;;;;;;362.05;333.40;;;;;;;;;;5003547;28;20046;-65
2023/06/19 12:46:36;;;;;;;359.65;330.00;;;;;;;;;;5000382;28;20520;-70
2023/06/19 12:49:03;;;;;;;356.05;327.23;;;;;;;;;;5004034;28;20510;-63
2023/06/19 12:51:30;;;;;;;347.60;319.75;;;;;;;;;;4990055;28;20058;-62
2023/06/19 12:53:57;;;;;;;355.15;327.40;;;;;;;;;;5008877;28;20041;-67
2023/06/19 12:56:23;;;;;;;357.65;329.85;;;;;;;;;;5006044;28;20054;-63
2023/06/19 12:58:50;;;;;;;367.95;334.73;;;;;;;;;;5002045;28;20045;-63
2023/06/19 13:01:17;;;;;;;352.73;323.27;;;;;;;;;;5004361;28;20052;-66
2023/06/19 13:03:44;;;;;;;349.90;321.77;;;;;;;;;;5001606;28;20084;-61
2023/06/19 13:06:11;;;;;;;352.65;324.40;;;;;;;;;;5000560;28;20049;-62
2023/06/19 13:08:37;;;;;;;349.95;322.48;;;;;;;;;;4994264;28;20456;-62
2023/06/19 13:11:04;;;;;;;350.90;323.67;;;;;;;;;;5010169;28;20041;-61
2023/06/19 13:13:31;;;;;;;346.55;318.90;;;;;;;;;;5002964;28;20073;-61
2023/06/19 13:15:57;;;;;;;360.52;330.92;;;;;;;;;;4984470;28;20054;-61
2023/06/19 13:18:24;;;;;;;369.27;339.65;;;;;;;;;;5000797;28;20061;-66
2023/06/19 13:20:51;;;;;;;354.52;327.73;;;;;;;;;;5000852;28;20043;-62
2023/06/19 13:23:17;;;;;;;359.65;332.25;;;;;;;;;;5003480;28;20038;-62
2023/06/19 13:25:44;;;;;;;361.08;331.73;;;;;;;;;;5006864;28;20048;-67
2023/06/19 13:28:10;;;;;;;375.13;345.25;;;;;;;;;;4985587;28;20100;-65
2023/06/19 13:30:37;;;;;;;378.25;347.42;;;;;;;;;;5003385;28;20101;-62
2023/06/19 13:33:04;;;;;;;371.58;341.70;;;;;;;;;;5005419;28;20033;-62
2023/06/19 13:35:31;;;;;;;385.08;353.83;;;;;;;;;;5001114;28;20104;-63
2023/06/19 13:37:59;;;;;;;380.00;348.75;;;;;;;;;;5001207;28;20085;-66
2023/06/19 13:40:26;;;;;;;375.02;344.27;;;;;;;;;;5004440;28;20104;-65
2023/06/19 13:42:52;;;;;;;383.27;351.95;;;;;;;;;;5001671;28;20408;-61
2023/06/19 13:45:19;;;;;;;379.90;349.33;;;;;;;;;;4999582;28;20050;-61
2023/06/19 13:47:45;;;;;;;381.42;350.90;;;;;;;;;;5002158;28;20389;-73
2023/06/19 13:50:17;;;;;;;392.48;360.25;;;;;;;;;;5002697;28;20069;-62
2023/06/19 13:52:45;;;;;;;392.70;360.60;;;;;;;;;;5000634;28;20057;-62
2023/06/19 13:55:14;;;;;;;380.17;349.02;;;;;;;;;;5002485;28;20046;-66
2023/06/19 13:57:41;;;;;;;391.25;359.77;;;;;;;;;;4990129;28;20050;-62
2023/06/19 14:00:10;;;;;;;388.98;357.83;;;;;;;;;;4980896;28;20057;-62
2023/06/19 14:02:41;;;;;;;397.30;365.30;;;;;;;;;;4999588;28;20050;-63
2023/06/19 14:05:08;;;;;;;392.02;360.88;;;;;;;;;;5002556;28;20046;-71
2023/06/19 14:07:35;;;;;;;380.10;351.00;;;;;;;;;;5004390;28;20499;-75